sensor_id;sensor_type;location;lat;lon;timestamp;temperature;humidity
52941;DHT22;62001;53.366;6.636;2022-11-21T00:00:28;1.00;99.90
52941;DHT22;62001;53.366;6.636;2022-11-21T00:02:58;1.00;99.90
52941;DHT22;62001;53.366;6.636;2022-11-21T00:05:25;1.00;99.90
52941;DHT22;62001;53.366;6.636;2022-11-21T00:07:51;0.90;99.90
52941;DHT22;62001;53.366;6.636;2022-11-21T00:10:17;0.90;99.90
52941;DHT22;62001;53.366;6.636;2022-11-21T00:12:43;0.80;99.90
52941;DHT22;62001;53.366;6.636;2022-11-21T00:15:09;0.90;99.90
52941;DHT22;62001;53.366;6.636;2022-11-21T00:17:35;0.80;99.90
52941;DHT22;62001;53.366;6.636;2022-11-21T00:20:01;0.80;99.90
52941;DHT22;62001;53.366;6.636;2022-11-21T00:22:26;0.70;99.90
52941;DHT22;62001;53.366;6.636;2022-11-21T00:24:52;0.70;99.90
52941;DHT22;62001;53.366;6.636;2022-11-21T00:27:18;0.60;99.90
52941;DHT22;62001;53.366;6.636;2022-11-21T00:29:44;0.60;99.90
52941;DHT22;62001;53.366;6.636;2022-11-21T00:32:10;0.50;99.90
52941;DHT22;62001;53.366;6.636;2022-11-21T00:34:35;0.50;99.90
52941;DHT22;62001;53.366;6.636;2022-11-21T00:37:01;0.40;99.90
52941;DHT22;62001;53.366;6.636;2022-11-21T00:39:27;0.40;99.90
52941;DHT22;62001;53.366;6.636;2022-11-21T00:41:53;0.30;99.90
52941;DHT22;62001;53.366;6.636;2022-11-21T00:44:19;0.20;99.90
52941;DHT22;62001;53.366;6.636;2022-11-21T00:46:44;0.10;99.90
52941;DHT22;62001;53.366;6.636;2022-11-21T00:49:10;0.10;99.90
52941;DHT22;62001;53.366;6.636;2022-11-21T00:51:36;0.10;99.90
52941;DHT22;62001;53.366;6.636;2022-11-21T00:54:02;0.00;99.90
52941;DHT22;62001;53.366;6.636;2022-11-21T00:56:27;-0.10;99.90
52941;DHT22;62001;53.366;6.636;2022-11-21T00:58:53;-0.20;99.90
52941;DHT22;62001;53.366;6.636;2022-11-21T01:01:19;-0.20;99.90
52941;DHT22;62001;53.366;6.636;2022-11-21T01:03:45;-0.20;99.90
52941;DHT22;62001;53.366;6.636;2022-11-21T01:06:13;-0.20;99.90
52941;DHT22;62001;53.366;6.636;2022-11-21T01:08:41;-0.30;99.90
52941;DHT22;62001;53.366;6.636;2022-11-21T01:11:13;-0.30;99.90
52941;DHT22;62001;53.366;6.636;2022-11-21T01:13:40;-0.40;99.90
52941;DHT22;62001;53.366;6.636;2022-11-21T01:16:09;-0.40;99.90
52941;DHT22;62001;53.366;6.636;2022-11-21T01:18:35;-0.40;99.90
52941;DHT22;62001;53.366;6.636;2022-11-21T01:21:03;-0.40;99.90
52941;DHT22;62001;53.366;6.636;2022-11-21T01:23:29;-0.50;99.90
52941;DHT22;62001;53.366;6.636;2022-11-21T01:26:03;-0.50;99.90
52941;DHT22;62001;53.366;6.636;2022-11-21T01:28:30;-0.50;99.90
52941;DHT22;62001;53.366;6.636;2022-11-21T01:31:05;-0.60;99.90
52941;DHT22;62001;53.366;6.636;2022-11-21T01:33:31;-0.50;99.90
52941;DHT22;62001;53.366;6.636;2022-11-21T01:36:08;-0.60;99.90
52941;DHT22;62001;53.366;6.636;2022-11-21T01:38:34;-0.60;99.90
52941;DHT22;62001;53.366;6.636;2022-11-21T01:41:00;-0.70;99.90
52941;DHT22;62001;53.366;6.636;2022-11-21T01:43:25;-0.60;99.90
52941;DHT22;62001;53.366;6.636;2022-11-21T01:48:18;-0.70;99.90
52941;DHT22;62001;53.366;6.636;2022-11-21T01:50:44;-0.60;99.90
52941;DHT22;62001;53.366;6.636;2022-11-21T01:53:10;-0.70;99.90
52941;DHT22;62001;53.366;6.636;2022-11-21T01:55:36;-0.60;99.90
52941;DHT22;62001;53.366;6.636;2022-11-21T01:58:02;-0.70;99.90
52941;DHT22;62001;53.366;6.636;2022-11-21T02:00:31;-0.60;99.90
52941;DHT22;62001;53.366;6.636;2022-11-21T02:03:06;-0.60;99.90
52941;DHT22;62001;53.366;6.636;2022-11-21T02:05:35;-0.60;99.90
52941;DHT22;62001;53.366;6.636;2022-11-21T02:08:14;-0.60;99.90
52941;DHT22;62001;53.366;6.636;2022-11-21T02:10:49;-0.50;99.90
52941;DHT22;62001;53.366;6.636;2022-11-21T02:13:18;-0.50;99.90
52941;DHT22;62001;53.366;6.636;2022-11-21T02:15:47;-0.50;99.90
52941;DHT22;62001;53.366;6.636;2022-11-21T02:18:13;-0.50;99.90
52941;DHT22;62001;53.366;6.636;2022-11-21T02:20:40;-0.50;99.90
52941;DHT22;62001;53.366;6.636;2022-11-21T02:25:44;-0.50;99.90
52941;DHT22;62001;53.366;6.636;2022-11-21T02:28:12;-0.50;99.90
52941;DHT22;62001;53.366;6.636;2022-11-21T02:30:41;-0.50;99.90
52941;DHT22;62001;53.366;6.636;2022-11-21T02:33:07;-0.40;99.90
52941;DHT22;62001;53.366;6.636;2022-11-21T02:35:33;-0.40;99.90
52941;DHT22;62001;53.366;6.636;2022-11-21T02:38:21;-0.40;99.90
52941;DHT22;62001;53.366;6.636;2022-11-21T02:40:57;-0.40;99.90
52941;DHT22;62001;53.366;6.636;2022-11-21T02:43:30;-0.40;99.90
52941;DHT22;62001;53.366;6.636;2022-11-21T02:45:57;-0.40;99.90
52941;DHT22;62001;53.366;6.636;2022-11-21T02:48:23;-0.50;99.90
52941;DHT22;62001;53.366;6.636;2022-11-21T02:50:49;-0.50;99.90
52941;DHT22;62001;53.366;6.636;2022-11-21T02:53:17;-0.50;99.90
52941;DHT22;62001;53.366;6.636;2022-11-21T02:55:44;-0.50;99.90
52941;DHT22;62001;53.366;6.636;2022-11-21T02:58:10;-0.50;99.90
52941;DHT22;62001;53.366;6.636;2022-11-21T03:00:37;-0.50;99.90
52941;DHT22;62001;53.366;6.636;2022-11-21T03:03:04;-0.40;99.90
52941;DHT22;62001;53.366;6.636;2022-11-21T03:05:30;-0.50;99.90
52941;DHT22;62001;53.366;6.636;2022-11-21T03:07:56;-0.40;99.90
52941;DHT22;62001;53.366;6.636;2022-11-21T03:10:22;-0.40;99.90
52941;DHT22;62001;53.366;6.636;2022-11-21T03:12:48;-0.40;99.90
52941;DHT22;62001;53.366;6.636;2022-11-21T03:15:14;-0.40;99.90
52941;DHT22;62001;53.366;6.636;2022-11-21T03:17:41;-0.30;99.90
52941;DHT22;62001;53.366;6.636;2022-11-21T03:20:08;-0.30;99.90
52941;DHT22;62001;53.366;6.636;2022-11-21T03:22:34;-0.30;99.90
52941;DHT22;62001;53.366;6.636;2022-11-21T03:25:00;-0.30;99.90
52941;DHT22;62001;53.366;6.636;2022-11-21T03:27:26;-0.30;99.90
52941;DHT22;62001;53.366;6.636;2022-11-21T03:29:52;-0.30;99.90
52941;DHT22;62001;53.366;6.636;2022-11-21T03:32:17;-0.20;99.90
52941;DHT22;62001;53.366;6.636;2022-11-21T03:34:43;-0.20;99.90
52941;DHT22;62001;53.366;6.636;2022-11-21T03:37:09;-0.20;99.90
52941;DHT22;62001;53.366;6.636;2022-11-21T03:39:35;-0.20;99.90
52941;DHT22;62001;53.366;6.636;2022-11-21T03:42:00;-0.10;99.90
52941;DHT22;62001;53.366;6.636;2022-11-21T03:44:26;-0.10;99.90
52941;DHT22;62001;53.366;6.636;2022-11-21T03:46:54;-0.10;99.90
52941;DHT22;62001;53.366;6.636;2022-11-21T03:49:19;-0.10;99.90
52941;DHT22;62001;53.366;6.636;2022-11-21T03:51:45;-0.20;99.90
52941;DHT22;62001;53.366;6.636;2022-11-21T03:54:11;-0.20;99.90
52941;DHT22;62001;53.366;6.636;2022-11-21T03:56:37;-0.20;99.90
52941;DHT22;62001;53.366;6.636;2022-11-21T03:59:06;-0.10;99.90
52941;DHT22;62001;53.366;6.636;2022-11-21T04:01:32;-0.10;99.90
52941;DHT22;62001;53.366;6.636;2022-11-21T04:03:58;-0.10;99.90
52941;DHT22;62001;53.366;6.636;2022-11-21T04:06:24;-0.10;99.90
52941;DHT22;62001;53.366;6.636;2022-11-21T04:08:50;-0.10;99.90
52941;DHT22;62001;53.366;6.636;2022-11-21T04:11:17;0.00;99.90
52941;DHT22;62001;53.366;6.636;2022-11-21T04:13:42;-0.10;99.90
52941;DHT22;62001;53.366;6.636;2022-11-21T04:16:08;0.00;99.90
52941;DHT22;62001;53.366;6.636;2022-11-21T04:18:34;0.00;99.90
52941;DHT22;62001;53.366;6.636;2022-11-21T04:21:04;0.00;99.90
52941;DHT22;62001;53.366;6.636;2022-11-21T04:23:30;0.00;99.90
52941;DHT22;62001;53.366;6.636;2022-11-21T04:25:56;0.00;99.90
52941;DHT22;62001;53.366;6.636;2022-11-21T04:28:22;0.00;99.90
52941;DHT22;62001;53.366;6.636;2022-11-21T04:30:48;0.10;99.90
52941;DHT22;62001;53.366;6.636;2022-11-21T04:33:16;0.00;99.90
52941;DHT22;62001;53.366;6.636;2022-11-21T04:35:43;0.00;99.90
52941;DHT22;62001;53.366;6.636;2022-11-21T04:38:10;0.00;99.90
52941;DHT22;62001;53.366;6.636;2022-11-21T04:40:36;0.00;99.90
52941;DHT22;62001;53.366;6.636;2022-11-21T04:43:03;0.00;99.90
52941;DHT22;62001;53.366;6.636;2022-11-21T04:45:29;-0.10;99.90
52941;DHT22;62001;53.366;6.636;2022-11-21T04:47:55;-0.10;99.90
52941;DHT22;62001;53.366;6.636;2022-11-21T04:50:21;-0.10;99.90
52941;DHT22;62001;53.366;6.636;2022-11-21T04:52:51;-0.20;99.90
52941;DHT22;62001;53.366;6.636;2022-11-21T04:55:18;-0.20;99.90
52941;DHT22;62001;53.366;6.636;2022-11-21T04:57:44;-0.30;99.90
52941;DHT22;62001;53.366;6.636;2022-11-21T05:00:10;-0.30;99.90
52941;DHT22;62001;53.366;6.636;2022-11-21T05:02:36;-0.40;99.90
52941;DHT22;62001;53.366;6.636;2022-11-21T05:05:02;-0.40;99.90
52941;DHT22;62001;53.366;6.636;2022-11-21T05:07:28;-0.40;99.90
52941;DHT22;62001;53.366;6.636;2022-11-21T05:09:53;-0.50;99.90
52941;DHT22;62001;53.366;6.636;2022-11-21T05:12:19;-0.50;99.90
52941;DHT22;62001;53.366;6.636;2022-11-21T05:15:04;-0.60;99.90
52941;DHT22;62001;53.366;6.636;2022-11-21T05:17:30;-0.60;99.90
52941;DHT22;62001;53.366;6.636;2022-11-21T05:19:56;-0.60;99.90
52941;DHT22;62001;53.366;6.636;2022-11-21T05:22:22;-0.70;99.90
52941;DHT22;62001;53.366;6.636;2022-11-21T05:24:48;-0.70;99.90
52941;DHT22;62001;53.366;6.636;2022-11-21T05:27:13;-0.70;99.90
52941;DHT22;62001;53.366;6.636;2022-11-21T05:29:39;-0.80;99.90
52941;DHT22;62001;53.366;6.636;2022-11-21T05:32:06;-0.80;99.90
52941;DHT22;62001;53.366;6.636;2022-11-21T05:34:32;-0.90;99.90
52941;DHT22;62001;53.366;6.636;2022-11-21T05:36:58;-0.90;99.90
52941;DHT22;62001;53.366;6.636;2022-11-21T05:39:24;-0.90;99.90
52941;DHT22;62001;53.366;6.636;2022-11-21T05:41:50;-1.00;99.90
52941;DHT22;62001;53.366;6.636;2022-11-21T05:44:16;-1.00;99.90
52941;DHT22;62001;53.366;6.636;2022-11-21T05:46:42;-1.00;99.90
52941;DHT22;62001;53.366;6.636;2022-11-21T05:49:08;-1.00;99.90
52941;DHT22;62001;53.366;6.636;2022-11-21T05:51:34;-1.00;99.90
52941;DHT22;62001;53.366;6.636;2022-11-21T05:54:00;-1.10;99.90
52941;DHT22;62001;53.366;6.636;2022-11-21T05:56:26;-1.10;99.90
52941;DHT22;62001;53.366;6.636;2022-11-21T05:58:55;-1.10;99.90
52941;DHT22;62001;53.366;6.636;2022-11-21T06:01:22;-1.20;99.90
52941;DHT22;62001;53.366;6.636;2022-11-21T06:04:07;-1.30;99.90
52941;DHT22;62001;53.366;6.636;2022-11-21T06:06:33;-1.40;99.90
52941;DHT22;62001;53.366;6.636;2022-11-21T06:08:59;-1.40;99.90
52941;DHT22;62001;53.366;6.636;2022-11-21T06:11:25;-1.40;99.90
52941;DHT22;62001;53.366;6.636;2022-11-21T06:13:52;-1.40;99.90
52941;DHT22;62001;53.366;6.636;2022-11-21T06:16:18;-1.30;99.90
52941;DHT22;62001;53.366;6.636;2022-11-21T06:18:46;-1.30;99.90
52941;DHT22;62001;53.366;6.636;2022-11-21T06:21:13;-1.20;99.90
52941;DHT22;62001;53.366;6.636;2022-11-21T06:23:39;-1.20;99.90
52941;DHT22;62001;53.366;6.636;2022-11-21T06:26:07;-1.20;99.90
52941;DHT22;62001;53.366;6.636;2022-11-21T06:28:37;-1.20;99.90
52941;DHT22;62001;53.366;6.636;2022-11-21T06:31:07;-1.20;99.90
52941;DHT22;62001;53.366;6.636;2022-11-21T06:33:34;-1.20;99.90
52941;DHT22;62001;53.366;6.636;2022-11-21T06:36:17;-1.30;99.90
52941;DHT22;62001;53.366;6.636;2022-11-21T06:38:44;-1.50;99.90
52941;DHT22;62001;53.366;6.636;2022-11-21T06:41:11;-1.50;99.90
52941;DHT22;62001;53.366;6.636;2022-11-21T06:43:37;-1.50;99.90
52941;DHT22;62001;53.366;6.636;2022-11-21T06:46:04;-1.50;99.90
52941;DHT22;62001;53.366;6.636;2022-11-21T06:48:30;-1.50;99.90
52941;DHT22;62001;53.366;6.636;2022-11-21T06:50:56;-1.40;99.90
52941;DHT22;62001;53.366;6.636;2022-11-21T06:53:23;-1.40;99.90
52941;DHT22;62001;53.366;6.636;2022-11-21T06:55:49;-1.30;99.90
52941;DHT22;62001;53.366;6.636;2022-11-21T06:58:15;-1.30;99.90
52941;DHT22;62001;53.366;6.636;2022-11-21T07:00:41;-1.30;99.90
52941;DHT22;62001;53.366;6.636;2022-11-21T07:03:06;-1.30;99.90
52941;DHT22;62001;53.366;6.636;2022-11-21T07:05:32;-1.30;99.90
52941;DHT22;62001;53.366;6.636;2022-11-21T07:07:59;-1.30;99.90
52941;DHT22;62001;53.366;6.636;2022-11-21T07:10:25;-1.20;99.90
52941;DHT22;62001;53.366;6.636;2022-11-21T07:12:51;-1.10;99.90
52941;DHT22;62001;53.366;6.636;2022-11-21T07:15:39;-1.00;99.90
52941;DHT22;62001;53.366;6.636;2022-11-21T07:18:05;-1.00;99.90
52941;DHT22;62001;53.366;6.636;2022-11-21T07:20:31;-1.00;99.90
52941;DHT22;62001;53.366;6.636;2022-11-21T07:22:56;-1.00;99.90
52941;DHT22;62001;53.366;6.636;2022-11-21T07:25:22;-1.00;99.90
52941;DHT22;62001;53.366;6.636;2022-11-21T07:27:48;-1.00;99.90
52941;DHT22;62001;53.366;6.636;2022-11-21T07:30:14;-1.00;99.90
52941;DHT22;62001;53.366;6.636;2022-11-21T07:32:40;-1.00;99.90
52941;DHT22;62001;53.366;6.636;2022-11-21T07:35:06;-0.90;99.90
52941;DHT22;62001;53.366;6.636;2022-11-21T07:37:36;-0.90;99.90
52941;DHT22;62001;53.366;6.636;2022-11-21T07:40:03;-0.80;99.90
52941;DHT22;62001;53.366;6.636;2022-11-21T07:42:34;-0.80;99.90
52941;DHT22;62001;53.366;6.636;2022-11-21T07:45:00;-0.80;99.90
52941;DHT22;62001;53.366;6.636;2022-11-21T07:47:25;-0.70;99.90
52941;DHT22;62001;53.366;6.636;2022-11-21T07:49:51;-0.50;99.90
52941;DHT22;62001;53.366;6.636;2022-11-21T07:52:17;-0.40;99.90
52941;DHT22;62001;53.366;6.636;2022-11-21T07:54:43;-0.40;99.90
52941;DHT22;62001;53.366;6.636;2022-11-21T07:57:08;-0.40;99.90
52941;DHT22;62001;53.366;6.636;2022-11-21T07:59:34;-0.30;99.90
52941;DHT22;62001;53.366;6.636;2022-11-21T08:02:02;-0.30;99.90
52941;DHT22;62001;53.366;6.636;2022-11-21T08:04:28;-0.20;99.90
52941;DHT22;62001;53.366;6.636;2022-11-21T08:06:54;-0.20;99.90
52941;DHT22;62001;53.366;6.636;2022-11-21T08:09:20;-0.20;99.90
52941;DHT22;62001;53.366;6.636;2022-11-21T08:11:45;-0.20;99.90
52941;DHT22;62001;53.366;6.636;2022-11-21T08:14:11;-0.10;99.90
52941;DHT22;62001;53.366;6.636;2022-11-21T08:16:37;-0.10;99.90
52941;DHT22;62001;53.366;6.636;2022-11-21T08:19:03;-0.10;99.90
52941;DHT22;62001;53.366;6.636;2022-11-21T08:21:30;-0.10;99.90
52941;DHT22;62001;53.366;6.636;2022-11-21T08:23:56;-0.10;99.90
52941;DHT22;62001;53.366;6.636;2022-11-21T08:26:21;-0.10;99.90
52941;DHT22;62001;53.366;6.636;2022-11-21T08:28:47;-0.20;99.90
52941;DHT22;62001;53.366;6.636;2022-11-21T08:31:13;-0.20;99.90
52941;DHT22;62001;53.366;6.636;2022-11-21T08:33:39;-0.20;99.90
52941;DHT22;62001;53.366;6.636;2022-11-21T08:36:06;-0.20;99.90
52941;DHT22;62001;53.366;6.636;2022-11-21T08:38:32;-0.20;99.90
52941;DHT22;62001;53.366;6.636;2022-11-21T08:40:58;-0.20;99.90
52941;DHT22;62001;53.366;6.636;2022-11-21T08:43:43;-0.20;99.90
52941;DHT22;62001;53.366;6.636;2022-11-21T08:46:09;0.10;99.90
52941;DHT22;62001;53.366;6.636;2022-11-21T08:48:34;0.50;99.90
52941;DHT22;62001;53.366;6.636;2022-11-21T08:51:00;0.60;99.90
52941;DHT22;62001;53.366;6.636;2022-11-21T08:53:26;0.70;99.90
52941;DHT22;62001;53.366;6.636;2022-11-21T08:55:53;0.70;99.90
52941;DHT22;62001;53.366;6.636;2022-11-21T08:58:19;0.80;99.90
52941;DHT22;62001;53.366;6.636;2022-11-21T09:00:45;0.90;99.90
52941;DHT22;62001;53.366;6.636;2022-11-21T09:03:11;0.90;99.90
52941;DHT22;62001;53.366;6.636;2022-11-21T09:05:36;0.90;99.90
52941;DHT22;62001;53.366;6.636;2022-11-21T09:08:02;0.90;99.90
52941;DHT22;62001;53.366;6.636;2022-11-21T09:10:28;0.80;99.90
52941;DHT22;62001;53.366;6.636;2022-11-21T09:12:58;0.80;99.90
52941;DHT22;62001;53.366;6.636;2022-11-21T09:15:24;0.80;99.90
52941;DHT22;62001;53.366;6.636;2022-11-21T09:18:11;0.80;99.90
52941;DHT22;62001;53.366;6.636;2022-11-21T09:20:40;0.80;99.90
52941;DHT22;62001;53.366;6.636;2022-11-21T09:23:07;0.80;99.90
52941;DHT22;62001;53.366;6.636;2022-11-21T09:25:34;0.90;99.90
52941;DHT22;62001;53.366;6.636;2022-11-21T09:28:01;0.90;99.90
52941;DHT22;62001;53.366;6.636;2022-11-21T09:30:28;0.90;99.90
52941;DHT22;62001;53.366;6.636;2022-11-21T09:33:08;0.90;99.90
52941;DHT22;62001;53.366;6.636;2022-11-21T09:35:35;1.00;99.90
52941;DHT22;62001;53.366;6.636;2022-11-21T09:38:00;1.00;99.90
52941;DHT22;62001;53.366;6.636;2022-11-21T09:40:28;1.00;99.90
52941;DHT22;62001;53.366;6.636;2022-11-21T09:43:05;1.10;99.90
52941;DHT22;62001;53.366;6.636;2022-11-21T09:45:34;1.10;99.90
52941;DHT22;62001;53.366;6.636;2022-11-21T09:48:07;1.10;99.90
52941;DHT22;62001;53.366;6.636;2022-11-21T09:50:54;1.20;99.90
52941;DHT22;62001;53.366;6.636;2022-11-21T09:53:32;1.20;99.90
52941;DHT22;62001;53.366;6.636;2022-11-21T09:56:06;1.20;99.90
52941;DHT22;62001;53.366;6.636;2022-11-21T09:58:38;1.30;99.90
52941;DHT22;62001;53.366;6.636;2022-11-21T10:01:04;1.30;99.90
52941;DHT22;62001;53.366;6.636;2022-11-21T10:03:44;1.30;99.90
52941;DHT22;62001;53.366;6.636;2022-11-21T10:06:18;1.40;99.90
52941;DHT22;62001;53.366;6.636;2022-11-21T10:17:20;1.70;99.90
52941;DHT22;62001;53.366;6.636;2022-11-21T10:25:24;2.00;99.90
52941;DHT22;62001;53.366;6.636;2022-11-21T10:30:34;2.10;99.90
52941;DHT22;62001;53.366;6.636;2022-11-21T10:33:02;2.20;99.90
52941;DHT22;62001;53.366;6.636;2022-11-21T10:35:44;2.30;99.90
52941;DHT22;62001;53.366;6.636;2022-11-21T10:38:21;2.30;99.90
52941;DHT22;62001;53.366;6.636;2022-11-21T10:41:17;2.40;99.90
52941;DHT22;62001;53.366;6.636;2022-11-21T10:43:55;2.40;99.90
52941;DHT22;62001;53.366;6.636;2022-11-21T10:47:18;2.30;99.90
52941;DHT22;62001;53.366;6.636;2022-11-21T10:50:17;2.30;99.90
52941;DHT22;62001;53.366;6.636;2022-11-21T10:52:58;2.40;99.90
52941;DHT22;62001;53.366;6.636;2022-11-21T10:55:25;2.40;99.90
52941;DHT22;62001;53.366;6.636;2022-11-21T10:57:51;2.50;99.90
52941;DHT22;62001;53.366;6.636;2022-11-21T11:00:24;2.50;99.90
52941;DHT22;62001;53.366;6.636;2022-11-21T11:05:28;2.60;99.90
52941;DHT22;62001;53.366;6.636;2022-11-21T11:08:11;2.70;99.90
52941;DHT22;62001;53.366;6.636;2022-11-21T11:10:45;2.80;99.90
52941;DHT22;62001;53.366;6.636;2022-11-21T11:13:24;2.80;99.90
52941;DHT22;62001;53.366;6.636;2022-11-21T11:16:14;2.80;99.90
52941;DHT22;62001;53.366;6.636;2022-11-21T11:21:20;2.80;99.90
52941;DHT22;62001;53.366;6.636;2022-11-21T11:23:48;2.80;99.90
52941;DHT22;62001;53.366;6.636;2022-11-21T11:28:43;2.90;99.90
52941;DHT22;62001;53.366;6.636;2022-11-21T11:31:09;3.00;99.90
52941;DHT22;62001;53.366;6.636;2022-11-21T11:33:51;3.00;99.90
52941;DHT22;62001;53.366;6.636;2022-11-21T11:38:59;3.00;99.90
52941;DHT22;62001;53.366;6.636;2022-11-21T11:44:48;3.00;99.90
52941;DHT22;62001;53.366;6.636;2022-11-21T11:47:34;3.00;99.90
52941;DHT22;62001;53.366;6.636;2022-11-21T11:50:11;2.90;99.90
52941;DHT22;62001;53.366;6.636;2022-11-21T11:56:04;2.90;99.90
52941;DHT22;62001;53.366;6.636;2022-11-21T12:01:20;2.90;99.90
52941;DHT22;62001;53.366;6.636;2022-11-21T12:03:58;2.90;99.90
52941;DHT22;62001;53.366;6.636;2022-11-21T12:06:28;3.00;99.90
52941;DHT22;62001;53.366;6.636;2022-11-21T12:09:06;3.00;99.90
52941;DHT22;62001;53.366;6.636;2022-11-21T12:12:09;3.10;99.90
52941;DHT22;62001;53.366;6.636;2022-11-21T12:23:38;3.40;99.90
52941;DHT22;62001;53.366;6.636;2022-11-21T12:35:14;3.50;99.90
52941;DHT22;62001;53.366;6.636;2022-11-21T12:45:56;3.80;99.90
52941;DHT22;62001;53.366;6.636;2022-11-21T12:48:36;3.90;99.90
52941;DHT22;62001;53.366;6.636;2022-11-21T12:54:56;4.10;99.90
52941;DHT22;62001;53.366;6.636;2022-11-21T13:05:50;4.30;99.90
52941;DHT22;62001;53.366;6.636;2022-11-21T13:08:27;4.30;99.90
52941;DHT22;62001;53.366;6.636;2022-11-21T13:13:40;4.30;99.90
52941;DHT22;62001;53.366;6.636;2022-11-21T13:16:17;4.30;99.90
52941;DHT22;62001;53.366;6.636;2022-11-21T13:19:15;4.30;99.90
52941;DHT22;62001;53.366;6.636;2022-11-21T13:21:51;4.20;99.90
52941;DHT22;62001;53.366;6.636;2022-11-21T13:27:25;4.20;99.90
52941;DHT22;62001;53.366;6.636;2022-11-21T13:30:15;4.10;99.90
52941;DHT22;62001;53.366;6.636;2022-11-21T13:32:45;4.00;99.90
52941;DHT22;62001;53.366;6.636;2022-11-21T13:38:08;3.90;99.90
52941;DHT22;62001;53.366;6.636;2022-11-21T13:40:39;3.80;99.90
52941;DHT22;62001;53.366;6.636;2022-11-21T13:43:26;3.80;99.90
52941;DHT22;62001;53.366;6.636;2022-11-21T13:45:52;3.70;99.90
52941;DHT22;62001;53.366;6.636;2022-11-21T13:51:30;3.70;99.90
52941;DHT22;62001;53.366;6.636;2022-11-21T13:59:39;3.70;99.90
52941;DHT22;62001;53.366;6.636;2022-11-21T14:05:35;3.70;99.90
52941;DHT22;62001;53.366;6.636;2022-11-21T14:08:23;3.70;99.90
52941;DHT22;62001;53.366;6.636;2022-11-21T14:10:50;3.70;99.90
52941;DHT22;62001;53.366;6.636;2022-11-21T14:13:26;3.70;99.90
52941;DHT22;62001;53.366;6.636;2022-11-21T14:16:35;3.70;99.90
52941;DHT22;62001;53.366;6.636;2022-11-21T14:19:16;3.70;99.90
52941;DHT22;62001;53.366;6.636;2022-11-21T14:21:44;3.70;99.90
52941;DHT22;62001;53.366;6.636;2022-11-21T14:24:18;3.70;99.90
52941;DHT22;62001;53.366;6.636;2022-11-21T14:26:49;3.70;99.90
52941;DHT22;62001;53.366;6.636;2022-11-21T14:29:37;3.70;99.90
52941;DHT22;62001;53.366;6.636;2022-11-21T14:32:03;3.70;99.90
52941;DHT22;62001;53.366;6.636;2022-11-21T14:34:31;3.70;99.90
52941;DHT22;62001;53.366;6.636;2022-11-21T14:37:03;3.80;99.90
52941;DHT22;62001;53.366;6.636;2022-11-21T14:39:32;3.80;99.90
52941;DHT22;62001;53.366;6.636;2022-11-21T14:42:01;3.70;99.90
52941;DHT22;62001;53.366;6.636;2022-11-21T14:44:27;3.70;99.90
52941;DHT22;62001;53.366;6.636;2022-11-21T14:47:17;3.60;99.90
52941;DHT22;62001;53.366;6.636;2022-11-21T14:49:50;3.60;99.90
52941;DHT22;62001;53.366;6.636;2022-11-21T14:52:27;3.60;99.90
52941;DHT22;62001;53.366;6.636;2022-11-21T14:55:04;3.60;99.90
52941;DHT22;62001;53.366;6.636;2022-11-21T14:57:41;3.60;99.90
52941;DHT22;62001;53.366;6.636;2022-11-21T15:00:10;3.60;99.90
52941;DHT22;62001;53.366;6.636;2022-11-21T15:02:36;3.60;99.90
52941;DHT22;62001;53.366;6.636;2022-11-21T15:05:05;3.60;99.90
52941;DHT22;62001;53.366;6.636;2022-11-21T15:07:39;3.60;99.90
52941;DHT22;62001;53.366;6.636;2022-11-21T15:10:11;3.60;99.90
52941;DHT22;62001;53.366;6.636;2022-11-21T15:15:32;3.60;99.90
52941;DHT22;62001;53.366;6.636;2022-11-21T15:18:04;3.60;99.90
52941;DHT22;62001;53.366;6.636;2022-11-21T15:20:31;3.60;99.90
52941;DHT22;62001;53.366;6.636;2022-11-21T15:22:59;3.50;99.90
52941;DHT22;62001;53.366;6.636;2022-11-21T15:25:28;3.50;99.90
52941;DHT22;62001;53.366;6.636;2022-11-21T15:30:33;3.60;99.90
52941;DHT22;62001;53.366;6.636;2022-11-21T15:33:15;3.60;99.90
52941;DHT22;62001;53.366;6.636;2022-11-21T15:43:48;3.50;99.90
52941;DHT22;62001;53.366;6.636;2022-11-21T15:46:22;3.50;99.90
52941;DHT22;62001;53.366;6.636;2022-11-21T15:48:50;3.50;99.90
52941;DHT22;62001;53.366;6.636;2022-11-21T15:51:19;3.50;99.90
52941;DHT22;62001;53.366;6.636;2022-11-21T15:53:45;3.50;99.90
52941;DHT22;62001;53.366;6.636;2022-11-21T15:56:13;3.50;99.90
52941;DHT22;62001;53.366;6.636;2022-11-21T15:58:40;3.50;99.90
52941;DHT22;62001;53.366;6.636;2022-11-21T16:01:20;3.50;99.90
52941;DHT22;62001;53.366;6.636;2022-11-21T16:03:57;3.50;99.90
52941;DHT22;62001;53.366;6.636;2022-11-21T16:06:24;3.50;99.90
52941;DHT22;62001;53.366;6.636;2022-11-21T16:08:50;3.50;99.90
52941;DHT22;62001;53.366;6.636;2022-11-21T16:11:35;3.50;99.90
52941;DHT22;62001;53.366;6.636;2022-11-21T16:14:03;3.50;99.90
52941;DHT22;62001;53.366;6.636;2022-11-21T16:16:36;3.50;99.90
52941;DHT22;62001;53.366;6.636;2022-11-21T16:19:02;3.50;99.90
52941;DHT22;62001;53.366;6.636;2022-11-21T16:21:28;3.50;99.90
52941;DHT22;62001;53.366;6.636;2022-11-21T16:23:54;3.50;99.90
52941;DHT22;62001;53.366;6.636;2022-11-21T16:26:20;3.50;99.90
52941;DHT22;62001;53.366;6.636;2022-11-21T16:28:58;3.50;99.90
52941;DHT22;62001;53.366;6.636;2022-11-21T16:31:28;3.50;99.90
52941;DHT22;62001;53.366;6.636;2022-11-21T16:33:55;3.50;99.90
52941;DHT22;62001;53.366;6.636;2022-11-21T16:36:26;3.50;99.90
52941;DHT22;62001;53.366;6.636;2022-11-21T16:38:53;3.50;99.90
52941;DHT22;62001;53.366;6.636;2022-11-21T16:41:20;3.50;99.90
52941;DHT22;62001;53.366;6.636;2022-11-21T16:43:49;3.50;99.90
52941;DHT22;62001;53.366;6.636;2022-11-21T16:46:15;3.50;99.90
52941;DHT22;62001;53.366;6.636;2022-11-21T16:48:41;3.40;99.90
52941;DHT22;62001;53.366;6.636;2022-11-21T16:51:18;3.40;99.90
52941;DHT22;62001;53.366;6.636;2022-11-21T16:53:46;3.40;99.90
52941;DHT22;62001;53.366;6.636;2022-11-21T16:56:13;3.30;99.90
52941;DHT22;62001;53.366;6.636;2022-11-21T16:58:40;3.30;99.90
52941;DHT22;62001;53.366;6.636;2022-11-21T17:01:18;3.20;99.90
52941;DHT22;62001;53.366;6.636;2022-11-21T17:03:46;3.20;99.90
52941;DHT22;62001;53.366;6.636;2022-11-21T17:06:14;3.20;99.90
52941;DHT22;62001;53.366;6.636;2022-11-21T17:08:40;3.10;99.90
52941;DHT22;62001;53.366;6.636;2022-11-21T17:11:20;3.10;99.90
52941;DHT22;62001;53.366;6.636;2022-11-21T17:13:48;3.10;99.90
52941;DHT22;62001;53.366;6.636;2022-11-21T17:16:16;3.20;99.90
52941;DHT22;62001;53.366;6.636;2022-11-21T17:18:43;3.20;99.90
52941;DHT22;62001;53.366;6.636;2022-11-21T17:21:12;3.20;99.90
52941;DHT22;62001;53.366;6.636;2022-11-21T17:23:42;3.10;99.90
52941;DHT22;62001;53.366;6.636;2022-11-21T17:26:09;3.10;99.90
52941;DHT22;62001;53.366;6.636;2022-11-21T17:28:36;3.10;99.90
52941;DHT22;62001;53.366;6.636;2022-11-21T17:31:06;3.10;99.90
52941;DHT22;62001;53.366;6.636;2022-11-21T17:33:33;3.10;99.90
52941;DHT22;62001;53.366;6.636;2022-11-21T17:36:07;3.00;99.90
52941;DHT22;62001;53.366;6.636;2022-11-21T17:38:36;3.00;99.90
52941;DHT22;62001;53.366;6.636;2022-11-21T17:41:03;3.00;99.90
52941;DHT22;62001;53.366;6.636;2022-11-21T17:43:29;3.00;99.90
52941;DHT22;62001;53.366;6.636;2022-11-21T17:46:03;3.00;99.90
52941;DHT22;62001;53.366;6.636;2022-11-21T17:48:32;3.00;99.90